createdAt,value
2023-01-29T00:00:19.724Z,1017.56
2023-01-29T00:01:19.707Z,1017.58
2023-01-29T00:02:19.695Z,1017.58
2023-01-29T00:03:19.703Z,1017.62
2023-01-29T00:04:19.697Z,1017.51
2023-01-29T00:05:19.663Z,1017.55
2023-01-29T00:06:19.656Z,1017.51
2023-01-29T00:07:19.668Z,1017.53
2023-01-29T00:08:19.634Z,1017.51
2023-01-29T00:09:19.626Z,1017.43
2023-01-29T00:10:19.611Z,1017.49
2023-01-29T00:11:19.624Z,1017.41
2023-01-29T00:12:19.588Z,1017.43
2023-01-29T00:13:19.580Z,1017.4
2023-01-29T00:14:19.575Z,1017.45
2023-01-29T00:15:19.555Z,1017.47
2023-01-29T00:16:19.545Z,1017.48
2023-01-29T00:17:19.553Z,1017.45
2023-01-29T00:18:19.531Z,1017.43
2023-01-29T00:19:19.513Z,1017.39
2023-01-29T00:20:19.505Z,1017.44
2023-01-29T00:21:19.497Z,1017.33
2023-01-29T00:22:19.490Z,1017.35
2023-01-29T00:23:19.497Z,1017.3
2023-01-29T00:24:19.466Z,1017.31
2023-01-29T00:25:19.458Z,1017.28
2023-01-29T00:26:19.443Z,1017.27
2023-01-29T00:27:19.434Z,1017.26
2023-01-29T00:28:19.428Z,1017.29
2023-01-29T00:29:19.425Z,1017.26
2023-01-29T00:30:19.401Z,1017.26
2023-01-29T00:31:19.400Z,1017.28
2023-01-29T00:32:19.379Z,1017.22
2023-01-29T00:33:19.372Z,1017.2
2023-01-29T00:34:19.359Z,1017.2
2023-01-29T00:35:19.356Z,1017.16
2023-01-29T00:36:19.352Z,1017.19
2023-01-29T00:37:19.333Z,1017.18
2023-01-29T00:38:19.341Z,1017.2
2023-01-29T00:39:19.306Z,1017.18
2023-01-29T00:40:19.303Z,1017.22
2023-01-29T00:41:19.284Z,1017.22
2023-01-29T00:42:19.275Z,1017.19
2023-01-29T00:43:19.270Z,1017.25
2023-01-29T00:44:19.258Z,1017.17
2023-01-29T00:45:19.250Z,1017.2
2023-01-29T00:46:19.232Z,1017.2
2023-01-29T00:47:19.223Z,1017.14
2023-01-29T00:48:19.221Z,1017.12
2023-01-29T00:49:19.208Z,1017.2
2023-01-29T00:50:19.194Z,1017.15
2023-01-29T00:51:19.190Z,1017.15
2023-01-29T00:52:19.201Z,1017.16
2023-01-29T00:53:19.163Z,1017.2
2023-01-29T00:54:19.155Z,1017.2
2023-01-29T00:55:19.154Z,1017.11
2023-01-29T00:56:19.157Z,1017.17
2023-01-29T00:57:19.117Z,1017.12
2023-01-29T00:58:19.117Z,1017.15
2023-01-29T00:59:19.099Z,1017.11
2023-01-29T01:00:19.093Z,1017.14
2023-01-29T01:01:19.078Z,1017.17
2023-01-29T01:02:19.105Z,1017.16
2023-01-29T01:03:19.059Z,1017.11
2023-01-29T01:04:19.043Z,1017.18
2023-01-29T01:05:19.057Z,1017.16
2023-01-29T01:06:19.030Z,1017.18
2023-01-29T01:07:19.029Z,1017.21
2023-01-29T01:08:19.008Z,1017.25
2023-01-29T01:09:19.012Z,1017.2
2023-01-29T01:10:19.047Z,1017.25
2023-01-29T01:11:18.977Z,1017.19
2023-01-29T01:12:18.964Z,1017.23
2023-01-29T01:13:18.979Z,1017.18
2023-01-29T01:14:18.940Z,1017.18
2023-01-29T01:15:18.934Z,1017.15
2023-01-29T01:16:18.930Z,1017.11
2023-01-29T01:17:18.913Z,1017.15
2023-01-29T01:18:18.953Z,1017.11
2023-01-29T01:19:18.888Z,1017.09
2023-01-29T01:20:18.877Z,1017.07
2023-01-29T01:21:18.875Z,1017.1
2023-01-29T01:22:18.857Z,1017.05
2023-01-29T01:23:18.847Z,1017.06
2023-01-29T01:24:18.834Z,1017.06
2023-01-29T01:25:18.850Z,1017.1
2023-01-29T01:26:18.829Z,1017.07
2023-01-29T01:27:18.809Z,1017.1
2023-01-29T01:28:18.802Z,1017.08
2023-01-29T01:29:18.782Z,1017.02
2023-01-29T01:30:18.785Z,1016.99
2023-01-29T01:31:18.766Z,1016.96
2023-01-29T01:32:18.765Z,1016.94
2023-01-29T01:33:18.747Z,1016.95
2023-01-29T01:34:18.734Z,1016.93
2023-01-29T01:35:18.728Z,1016.89
2023-01-29T01:36:18.714Z,1016.83
2023-01-29T01:37:18.706Z,1016.85
2023-01-29T01:38:18.705Z,1016.85
2023-01-29T01:39:18.678Z,1016.84
2023-01-29T01:40:18.672Z,1016.79
2023-01-29T01:41:18.663Z,1016.8
2023-01-29T01:42:18.652Z,1016.74
2023-01-29T01:43:18.644Z,1016.79
2023-01-29T01:44:18.637Z,1016.78
2023-01-29T01:45:18.616Z,1016.76
2023-01-29T01:46:18.610Z,1016.76
2023-01-29T01:47:18.598Z,1016.77
2023-01-29T01:48:18.590Z,1016.76
2023-01-29T01:49:18.596Z,1016.81
2023-01-29T01:50:18.580Z,1016.83
2023-01-29T01:51:18.567Z,1016.83
2023-01-29T01:52:18.543Z,1016.87
2023-01-29T01:53:18.536Z,1016.88
2023-01-29T01:54:18.535Z,1016.76
2023-01-29T01:55:18.513Z,1016.83
2023-01-29T01:56:18.518Z,1016.82
2023-01-29T01:57:18.490Z,1016.79
2023-01-29T01:58:18.502Z,1016.84
2023-01-29T01:59:18.475Z,1016.85
2023-01-29T02:00:18.458Z,1016.8
2023-01-29T02:01:18.457Z,1016.79
2023-01-29T02:02:18.445Z,1016.8
2023-01-29T02:03:18.433Z,1016.86
2023-01-29T02:04:18.420Z,1016.81
2023-01-29T02:05:18.406Z,1016.81
2023-01-29T02:06:18.474Z,1016.84
2023-01-29T02:07:18.404Z,1016.86
2023-01-29T02:08:18.380Z,1016.83
2023-01-29T02:09:18.365Z,1016.91
2023-01-29T02:10:18.356Z,1016.88
2023-01-29T02:11:18.367Z,1016.92
2023-01-29T02:12:18.336Z,1016.88
2023-01-29T02:13:18.345Z,1016.94
2023-01-29T02:14:18.315Z,1016.93
2023-01-29T02:15:18.307Z,1016.91
2023-01-29T02:16:18.315Z,1016.92
2023-01-29T02:17:18.288Z,1016.94
2023-01-29T02:18:18.275Z,1016.88
2023-01-29T02:19:18.267Z,1016.94
2023-01-29T02:20:18.262Z,1016.92
2023-01-29T02:21:18.265Z,1016.94
2023-01-29T02:22:18.236Z,1016.93
2023-01-29T02:23:18.225Z,1016.91
2023-01-29T02:24:18.209Z,1016.95
2023-01-29T02:25:18.198Z,1016.89
2023-01-29T02:26:18.192Z,1016.99
2023-01-29T02:27:18.210Z,1017
2023-01-29T02:28:18.172Z,1016.95
2023-01-29T02:29:18.163Z,1016.97
2023-01-29T02:30:18.147Z,1016.85
2023-01-29T02:31:18.141Z,1016.9
2023-01-29T02:32:18.131Z,1016.9
2023-01-29T02:33:18.121Z,1016.92
2023-01-29T02:34:18.121Z,1016.94
2023-01-29T02:35:18.094Z,1016.99
2023-01-29T02:36:18.091Z,1017.03
2023-01-29T02:37:18.078Z,1017
2023-01-29T02:38:18.071Z,1017.07
2023-01-29T02:39:18.057Z,1017.01
2023-01-29T02:40:18.067Z,1017.02
2023-01-29T02:41:18.031Z,1017
2023-01-29T02:42:18.036Z,1016.99
2023-01-29T02:43:18.015Z,1017.04
2023-01-29T02:44:18.002Z,1017.01
2023-01-29T02:45:17.996Z,1017.01
2023-01-29T02:46:18.001Z,1017.06
2023-01-29T02:47:17.988Z,1017.08
2023-01-29T02:48:17.965Z,1016.97
2023-01-29T02:49:17.964Z,1016.96
2023-01-29T02:50:17.943Z,1017.03
2023-01-29T02:51:17.934Z,1016.99
2023-01-29T02:52:17.922Z,1017.03
2023-01-29T02:53:17.910Z,1017.13
2023-01-29T02:54:17.912Z,1017.08
2023-01-29T02:55:17.896Z,1017.11
2023-01-29T02:56:17.880Z,1017.1
2023-01-29T02:57:17.870Z,1017.11
2023-01-29T02:58:17.873Z,1017.11
2023-01-29T02:59:17.848Z,1017.14
2023-01-29T03:00:17.837Z,1017.1
2023-01-29T03:01:17.848Z,1017.11
2023-01-29T03:02:17.816Z,1017.05
2023-01-29T03:03:17.807Z,1017.11
2023-01-29T03:04:17.836Z,1017.11
2023-01-29T03:05:17.783Z,1017.13
2023-01-29T03:06:17.780Z,1017.14
2023-01-29T03:07:17.767Z,1017.1
2023-01-29T03:08:17.755Z,1017.1
2023-01-29T03:09:17.766Z,1017.15
2023-01-29T03:10:17.745Z,1017.05
2023-01-29T03:11:17.722Z,1017.07
2023-01-29T03:12:17.717Z,1017.03
2023-01-29T03:13:17.701Z,1017.06
2023-01-29T03:14:17.691Z,1017.01
2023-01-29T03:15:17.685Z,1016.99
2023-01-29T03:16:17.703Z,1017.04
2023-01-29T03:17:17.667Z,1017.02
2023-01-29T03:18:17.656Z,1017.05
2023-01-29T03:19:17.636Z,1016.97
2023-01-29T03:20:17.631Z,1016.93
2023-01-29T03:21:17.630Z,1016.89
2023-01-29T03:22:17.624Z,1016.91
2023-01-29T03:23:17.607Z,1016.94
2023-01-29T03:24:17.595Z,1016.93
2023-01-29T03:25:17.609Z,1016.96
2023-01-29T03:26:17.572Z,1016.9
2023-01-29T03:27:17.570Z,1016.84
2023-01-29T03:28:17.557Z,1016.87
2023-01-29T03:29:17.547Z,1016.86
2023-01-29T03:30:17.526Z,1016.86
2023-01-29T03:31:17.531Z,1016.83
2023-01-29T03:32:17.506Z,1016.9
2023-01-29T03:33:17.512Z,1016.81
2023-01-29T03:34:17.485Z,1016.86
2023-01-29T03:35:17.475Z,1016.83
2023-01-29T03:36:17.462Z,1016.85
2023-01-29T03:37:17.462Z,1016.78
2023-01-29T03:38:17.442Z,1016.77
2023-01-29T03:39:17.491Z,1016.75
2023-01-29T03:40:17.419Z,1016.75
2023-01-29T03:41:17.414Z,1016.64
2023-01-29T03:42:17.403Z,1016.64
2023-01-29T03:43:17.397Z,1016.64
2023-01-29T03:44:17.380Z,1016.65
2023-01-29T03:45:17.374Z,1016.6
2023-01-29T03:46:17.398Z,1016.68
2023-01-29T03:47:17.361Z,1016.65
2023-01-29T03:48:17.343Z,1016.68
2023-01-29T03:49:17.326Z,1016.74
2023-01-29T03:50:17.325Z,1016.79
2023-01-29T03:51:17.321Z,1016.76
2023-01-29T03:52:17.295Z,1016.73
2023-01-29T03:53:17.300Z,1016.77
2023-01-29T03:54:17.319Z,1016.79
2023-01-29T03:55:17.274Z,1016.75
2023-01-29T03:56:17.259Z,1016.76
2023-01-29T03:57:17.240Z,1016.73
2023-01-29T03:58:17.247Z,1016.69
2023-01-29T03:59:17.222Z,1016.68
2023-01-29T04:00:17.212Z,1016.67
2023-01-29T04:01:17.224Z,1016.68
2023-01-29T04:02:17.191Z,1016.66
2023-01-29T04:03:17.182Z,1016.64
2023-01-29T04:04:17.171Z,1016.69
2023-01-29T04:05:17.159Z,1016.67
2023-01-29T04:06:17.146Z,1016.69
2023-01-29T04:07:17.142Z,1016.67
2023-01-29T04:08:17.210Z,1016.66
2023-01-29T04:09:18.124Z,1016.65
2023-01-29T04:10:17.114Z,1016.58
2023-01-29T04:11:17.094Z,1016.61
2023-01-29T04:12:17.093Z,1016.52
2023-01-29T04:13:17.080Z,1016.54
2023-01-29T04:14:17.071Z,1016.54
2023-01-29T04:15:17.071Z,1016.53
2023-01-29T04:16:17.054Z,1016.46
2023-01-29T04:17:17.052Z,1016.46
2023-01-29T04:18:17.048Z,1016.46
2023-01-29T04:19:17.014Z,1016.46
2023-01-29T04:20:17.005Z,1016.46
2023-01-29T04:21:16.992Z,1016.43
2023-01-29T04:22:16.989Z,1016.37
2023-01-29T04:23:16.970Z,1016.38
2023-01-29T04:24:16.969Z,1016.28
2023-01-29T04:25:16.956Z,1016.19
2023-01-29T04:26:16.942Z,1016.11
2023-01-29T04:27:16.929Z,1016.13
2023-01-29T04:28:16.922Z,1016.08
2023-01-29T04:29:16.907Z,1016.02
2023-01-29T04:30:16.902Z,1016.04
2023-01-29T04:31:16.902Z,1015.98
2023-01-29T04:32:16.906Z,1015.97
2023-01-29T04:33:16.865Z,1015.98
2023-01-29T04:34:16.863Z,1015.95
2023-01-29T04:35:16.848Z,1015.99
2023-01-29T04:36:16.836Z,1015.91
2023-01-29T04:37:16.832Z,1015.89
2023-01-29T04:38:16.831Z,1015.8
2023-01-29T04:39:16.813Z,1015.79
2023-01-29T04:40:16.800Z,1015.68
2023-01-29T04:41:16.786Z,1015.73
2023-01-29T04:42:16.772Z,1015.72
2023-01-29T04:43:16.767Z,1015.7
2023-01-29T04:44:16.755Z,1015.69
2023-01-29T04:45:16.761Z,1015.73
2023-01-29T04:46:16.741Z,1015.67
2023-01-29T04:47:16.722Z,1015.66
2023-01-29T04:48:16.716Z,1015.68
2023-01-29T04:49:16.703Z,1015.71
2023-01-29T04:50:16.690Z,1015.7
2023-01-29T04:51:16.710Z,1015.64
2023-01-29T04:52:16.670Z,1015.66
2023-01-29T04:53:16.660Z,1015.61
2023-01-29T04:54:16.647Z,1015.64
2023-01-29T04:55:16.639Z,1015.62
2023-01-29T04:56:16.632Z,1015.72
2023-01-29T04:57:16.629Z,1015.63
2023-01-29T04:58:16.618Z,1015.58
2023-01-29T04:59:16.628Z,1015.55
2023-01-29T05:00:16.592Z,1015.55
2023-01-29T05:01:16.599Z,1015.58
2023-01-29T05:02:16.632Z,1015.54
2023-01-29T05:03:16.603Z,1015.48
2023-01-29T05:04:16.559Z,1015.55
2023-01-29T05:05:16.594Z,1015.53
2023-01-29T05:06:16.528Z,1015.53
2023-01-29T05:07:16.525Z,1015.59
2023-01-29T05:08:16.533Z,1015.6
2023-01-29T05:09:16.501Z,1015.58
2023-01-29T05:10:16.550Z,1015.62
2023-01-29T05:11:17.473Z,1015.59
2023-01-29T05:12:16.470Z,1015.55
2023-01-29T05:13:16.454Z,1015.5
2023-01-29T05:14:16.454Z,1015.57
2023-01-29T05:15:16.435Z,1015.57
2023-01-29T05:16:24.010Z,1015.53
2023-01-29T05:17:16.409Z,1015.52
2023-01-29T05:18:16.402Z,1015.51
2023-01-29T05:19:16.412Z,1015.54
2023-01-29T05:20:16.391Z,1015.6
2023-01-29T05:21:16.388Z,1015.54
2023-01-29T05:22:16.375Z,1015.74
2023-01-29T05:23:16.347Z,1015.74
2023-01-29T05:24:16.355Z,1015.78
2023-01-29T05:25:16.329Z,1015.67
2023-01-29T05:26:16.320Z,1015.69
2023-01-29T05:27:16.306Z,1015.72
2023-01-29T05:28:16.320Z,1015.78
2023-01-29T05:29:16.285Z,1015.74
2023-01-29T05:30:16.282Z,1015.8
2023-01-29T05:31:16.270Z,1015.74
2023-01-29T05:32:16.267Z,1015.81
2023-01-29T05:33:16.270Z,1015.89
2023-01-29T05:34:16.254Z,1015.85
2023-01-29T05:35:16.249Z,1015.9
2023-01-29T05:36:16.228Z,1015.92
2023-01-29T05:37:16.212Z,1015.93
2023-01-29T05:38:16.208Z,1015.92
2023-01-29T05:39:16.192Z,1015.94
2023-01-29T05:40:16.176Z,1016
2023-01-29T05:41:16.163Z,1015.95
2023-01-29T05:42:16.159Z,1015.93
2023-01-29T05:43:16.151Z,1015.97
2023-01-29T05:44:16.130Z,1015.97
2023-01-29T05:45:16.123Z,1015.91
2023-01-29T05:46:16.117Z,1015.89
2023-01-29T05:47:16.102Z,1015.86
2023-01-29T05:48:16.095Z,1015.85
2023-01-29T05:49:16.086Z,1015.85
2023-01-29T05:50:16.066Z,1015.9
2023-01-29T05:51:16.064Z,1015.92
2023-01-29T05:52:16.072Z,1015.97
2023-01-29T05:53:16.050Z,1016.01
2023-01-29T05:54:16.032Z,1016.03
2023-01-29T05:55:16.017Z,1016.04
2023-01-29T05:56:16.030Z,1016.06
2023-01-29T05:57:15.995Z,1016.09
2023-01-29T05:58:15.979Z,1016.16
2023-01-29T05:59:15.983Z,1016.08
2023-01-29T06:00:15.978Z,1016.17
2023-01-29T06:01:15.954Z,1016.14
2023-01-29T06:02:15.940Z,1016.2
2023-01-29T06:03:15.944Z,1016.23
2023-01-29T06:04:15.921Z,1016.24
2023-01-29T06:05:15.916Z,1016.15
2023-01-29T06:06:15.897Z,1016.16
2023-01-29T06:07:15.982Z,1016.12
2023-01-29T06:08:15.890Z,1016.09
2023-01-29T06:09:15.891Z,1016.08
2023-01-29T06:10:15.863Z,1016.06
2023-01-29T06:11:15.849Z,1016.02
2023-01-29T06:12:15.844Z,1016.08
2023-01-29T06:13:15.834Z,1016.09
2023-01-29T06:14:15.826Z,1016.15
2023-01-29T06:15:15.807Z,1016.12
2023-01-29T06:16:15.802Z,1016.17
2023-01-29T06:17:15.788Z,1016.1
2023-01-29T06:18:15.775Z,1016.05
2023-01-29T06:19:15.766Z,1016.01
2023-01-29T06:20:15.768Z,1016.01
2023-01-29T06:21:15.750Z,1016.05
2023-01-29T06:22:15.732Z,1016.05
2023-01-29T06:23:15.731Z,1016.13
2023-01-29T06:24:15.724Z,1016.06
2023-01-29T06:25:15.707Z,1016.07
2023-01-29T06:26:15.700Z,1016.07
2023-01-29T06:27:15.690Z,1016.07
2023-01-29T06:28:15.690Z,1016.11
2023-01-29T06:29:15.671Z,1016.07
2023-01-29T06:30:15.646Z,1016.07
2023-01-29T06:31:15.641Z,1016.07
2023-01-29T06:32:15.661Z,1016.17
2023-01-29T06:33:15.626Z,1016.23
2023-01-29T06:34:15.632Z,1016.31
2023-01-29T06:35:15.602Z,1016.31
2023-01-29T06:36:15.616Z,1016.28
2023-01-29T06:37:15.592Z,1016.26
2023-01-29T06:38:15.568Z,1016.29
2023-01-29T06:39:15.577Z,1016.21
2023-01-29T06:40:15.552Z,1016.24
2023-01-29T06:41:15.538Z,1016.2
2023-01-29T06:42:15.557Z,1016.18
2023-01-29T06:43:15.579Z,1016.2
2023-01-29T06:44:15.550Z,1016.19
2023-01-29T06:45:15.499Z,1016.14
2023-01-29T06:46:15.486Z,1016.18
2023-01-29T06:47:15.492Z,1016.15
2023-01-29T06:48:15.472Z,1016.17
2023-01-29T06:49:15.448Z,1016.19
2023-01-29T06:50:15.449Z,1016.21
2023-01-29T06:51:15.439Z,1016.26
2023-01-29T06:52:15.421Z,1016.2
2023-01-29T06:53:15.410Z,1016.23
2023-01-29T06:54:15.400Z,1016.21
2023-01-29T06:55:15.396Z,1016.12
2023-01-29T06:56:15.406Z,1016.2
2023-01-29T06:57:15.369Z,1016.13
2023-01-29T06:58:15.371Z,1016.23
2023-01-29T06:59:15.347Z,1016.15
2023-01-29T07:00:15.333Z,1016.2
2023-01-29T07:01:15.326Z,1016.17
2023-01-29T07:02:15.324Z,1016.11
2023-01-29T07:03:15.306Z,1016.14
2023-01-29T07:04:15.302Z,1016.12
2023-01-29T07:05:15.286Z,1016.17
2023-01-29T07:06:15.280Z,1016.21
2023-01-29T07:07:15.270Z,1016.2
2023-01-29T07:08:15.258Z,1016.15
2023-01-29T07:09:15.262Z,1016.19
2023-01-29T07:10:15.261Z,1016.21
2023-01-29T07:11:15.225Z,1016.2
2023-01-29T07:12:15.218Z,1016.23
2023-01-29T07:13:15.202Z,1016.26
2023-01-29T07:14:15.196Z,1016.21
2023-01-29T07:15:15.188Z,1016.28
2023-01-29T07:16:15.170Z,1016.29
2023-01-29T07:17:15.160Z,1016.2
2023-01-29T07:18:15.159Z,1016.22
2023-01-29T07:19:15.145Z,1016.22
2023-01-29T07:20:15.139Z,1016.32
2023-01-29T07:21:15.125Z,1016.29
2023-01-29T07:22:15.109Z,1016.31
2023-01-29T07:23:15.101Z,1016.25
2023-01-29T07:24:15.096Z,1016.2
2023-01-29T07:25:15.081Z,1016.19
2023-01-29T07:26:15.082Z,1016.25
2023-01-29T07:27:15.080Z,1016.19
2023-01-29T07:28:15.055Z,1016.19
2023-01-29T07:29:15.039Z,1016.23
2023-01-29T07:30:15.041Z,1016.27
2023-01-29T07:31:15.026Z,1016.22
2023-01-29T07:32:15.019Z,1016.17
2023-01-29T07:33:14.992Z,1016.16
2023-01-29T07:34:14.987Z,1016.14
2023-01-29T07:35:14.985Z,1016.11
2023-01-29T07:36:14.970Z,1016.07
2023-01-29T07:37:14.954Z,1016.03
2023-01-29T07:38:14.950Z,1016.07
2023-01-29T07:39:14.930Z,1016.09
2023-01-29T07:40:14.927Z,1016.07
2023-01-29T07:41:14.911Z,1016.14
2023-01-29T07:42:14.901Z,1016.22
2023-01-29T07:43:14.891Z,1016.24
2023-01-29T07:44:14.890Z,1016.26
2023-01-29T07:45:14.871Z,1016.27
2023-01-29T07:46:14.864Z,1016.31
2023-01-29T07:47:14.857Z,1016.33
2023-01-29T07:48:14.838Z,1016.27
2023-01-29T07:49:14.841Z,1016.26
2023-01-29T07:50:14.823Z,1016.18
2023-01-29T07:51:14.823Z,1016.14
2023-01-29T07:52:14.801Z,1016.04
2023-01-29T07:53:14.805Z,1015.97
2023-01-29T07:54:14.780Z,1015.9
2023-01-29T07:55:14.779Z,1015.88
2023-01-29T07:56:14.770Z,1015.88
2023-01-29T07:57:24.105Z,1015.89
2023-01-29T07:58:14.734Z,1015.92
2023-01-29T07:59:14.763Z,1015.92
2023-01-29T08:00:14.718Z,1015.88
2023-01-29T08:01:14.710Z,1015.94
2023-01-29T08:02:14.721Z,1016
2023-01-29T08:03:23.744Z,1015.99
2023-01-29T08:04:14.673Z,1016.07
2023-01-29T08:05:14.660Z,1016.11
2023-01-29T08:06:14.664Z,1015.98
2023-01-29T08:07:14.655Z,1015.95
2023-01-29T08:08:14.659Z,1015.9
2023-01-29T08:09:14.619Z,1015.88
2023-01-29T08:10:14.617Z,1015.76
2023-01-29T08:11:14.595Z,1015.77
2023-01-29T08:12:14.591Z,1015.69
2023-01-29T08:13:14.578Z,1015.69
2023-01-29T08:14:14.573Z,1015.56
2023-01-29T08:15:14.572Z,1015.54
2023-01-29T08:16:14.598Z,1015.54
2023-01-29T08:17:14.546Z,1015.46
2023-01-29T08:18:14.534Z,1015.48
2023-01-29T08:19:14.531Z,1015.45
2023-01-29T08:20:14.512Z,1015.46
2023-01-29T08:21:14.502Z,1015.49
2023-01-29T08:22:14.508Z,1015.49
2023-01-29T08:23:14.475Z,1015.54
2023-01-29T08:24:14.550Z,1015.58
2023-01-29T08:25:14.479Z,1015.48
2023-01-29T08:26:14.451Z,1015.5
2023-01-29T08:27:14.436Z,1015.52
2023-01-29T08:28:14.428Z,1015.59
2023-01-29T08:29:14.411Z,1015.61
2023-01-29T08:30:14.412Z,1015.58
2023-01-29T08:31:14.436Z,1015.5
2023-01-29T08:32:14.387Z,1015.43
2023-01-29T08:33:14.375Z,1015.35
2023-01-29T08:34:14.358Z,1015.39
2023-01-29T08:35:14.351Z,1015.31
2023-01-29T08:36:14.336Z,1015.37
2023-01-29T08:37:14.340Z,1015.37
2023-01-29T08:38:14.328Z,1015.41
2023-01-29T08:39:14.327Z,1015.47
2023-01-29T08:40:14.312Z,1015.45
2023-01-29T08:41:14.296Z,1015.43
2023-01-29T08:42:14.275Z,1015.47
2023-01-29T08:43:14.269Z,1015.59
2023-01-29T08:44:14.259Z,1015.52
2023-01-29T08:45:14.249Z,1015.59
2023-01-29T08:46:14.234Z,1015.55
2023-01-29T08:47:14.230Z,1015.54
2023-01-29T08:48:14.234Z,1015.53
2023-01-29T08:49:14.200Z,1015.53
2023-01-29T08:50:14.187Z,1015.55
2023-01-29T08:51:14.198Z,1015.52
2023-01-29T08:52:14.174Z,1015.41
2023-01-29T08:53:14.171Z,1015.47
2023-01-29T08:54:14.180Z,1015.38
2023-01-29T08:55:14.149Z,1015.39
2023-01-29T08:56:14.128Z,1015.34
2023-01-29T08:57:14.128Z,1015.36
2023-01-29T08:58:14.111Z,1015.33
2023-01-29T08:59:14.106Z,1015.27
2023-01-29T09:00:14.088Z,1015.33
2023-01-29T09:01:14.078Z,1015.3
2023-01-29T09:02:14.070Z,1015.28
2023-01-29T09:03:14.061Z,1015.35
2023-01-29T09:04:14.047Z,1015.3
2023-01-29T09:05:14.032Z,1015.35
2023-01-29T09:06:14.027Z,1015.34
2023-01-29T09:07:14.017Z,1015.34
2023-01-29T09:08:14.003Z,1015.34
2023-01-29T09:09:14.008Z,1015.31
2023-01-29T09:10:13.987Z,1015.36
2023-01-29T09:11:13.976Z,1015.39
2023-01-29T09:12:13.965Z,1015.36
2023-01-29T09:13:13.948Z,1015.41
2023-01-29T09:14:13.959Z,1015.48
2023-01-29T09:15:13.932Z,1015.42
2023-01-29T09:16:13.923Z,1015.44
2023-01-29T09:17:13.910Z,1015.31
2023-01-29T09:18:13.900Z,1015.28
2023-01-29T09:19:13.896Z,1015.29
2023-01-29T09:20:13.880Z,1015.17
2023-01-29T09:21:13.869Z,1015.13
2023-01-29T09:22:13.871Z,1015.11
2023-01-29T09:23:13.847Z,1015.17
2023-01-29T09:24:13.854Z,1015.21
2023-01-29T09:25:13.833Z,1015.23
2023-01-29T09:26:13.842Z,1015.17
2023-01-29T09:27:13.803Z,1015.26
2023-01-29T09:28:13.804Z,1015.29
2023-01-29T09:29:13.846Z,1015.26
2023-01-29T09:30:13.783Z,1015.26
2023-01-29T09:31:13.762Z,1015.24
2023-01-29T09:32:13.758Z,1015.22
2023-01-29T09:33:13.760Z,1015.33
2023-01-29T09:34:22.602Z,1015.31
2023-01-29T09:35:13.719Z,1015.35
2023-01-29T09:36:13.711Z,1015.32
2023-01-29T09:37:13.714Z,1015.42
2023-01-29T09:38:13.699Z,1015.35
2023-01-29T09:39:13.686Z,1015.33
2023-01-29T09:40:13.666Z,1015.41
2023-01-29T09:41:21.265Z,1015.3
2023-01-29T09:42:13.654Z,1015.42
2023-01-29T09:43:13.636Z,1015.29
2023-01-29T09:44:13.623Z,1015.31
2023-01-29T09:45:22.222Z,1015.33
2023-01-29T09:46:13.617Z,1015.37
2023-01-29T09:47:21.189Z,1015.38
2023-01-29T09:48:22.196Z,1015.34
2023-01-29T09:49:21.157Z,1015.39
2023-01-29T09:50:13.563Z,1015.36
2023-01-29T09:51:13.560Z,1015.34
2023-01-29T09:52:13.545Z,1015.35
2023-01-29T09:53:13.541Z,1015.24
2023-01-29T09:54:13.524Z,1015.22
2023-01-29T09:55:13.510Z,1015.22
2023-01-29T09:56:13.510Z,1015.22
2023-01-29T09:57:13.496Z,1015.24
2023-01-29T09:58:13.507Z,1015.1
2023-01-29T09:59:13.471Z,1015.16
2023-01-29T10:00:13.461Z,1015.19
2023-01-29T10:01:13.447Z,1015.18
2023-01-29T10:02:13.436Z,1015.17
2023-01-29T10:03:13.438Z,1015.08
2023-01-29T10:04:13.422Z,1015.08
2023-01-29T10:05:13.408Z,1015.14
2023-01-29T10:06:13.432Z,1015.11
2023-01-29T10:07:13.383Z,1015.04
2023-01-29T10:08:13.387Z,1014.99
2023-01-29T10:09:13.366Z,1014.98
2023-01-29T10:10:13.357Z,1014.95
2023-01-29T10:11:13.358Z,1014.91
2023-01-29T10:12:13.339Z,1015.01
2023-01-29T10:13:13.344Z,1014.9
2023-01-29T10:14:13.322Z,1014.88
2023-01-29T10:15:13.308Z,1014.91
2023-01-29T10:16:13.298Z,1014.89
2023-01-29T10:17:13.280Z,1014.85
2023-01-29T10:18:13.274Z,1014.83
2023-01-29T10:19:13.260Z,1014.9
2023-01-29T10:20:13.286Z,1014.88
2023-01-29T10:21:13.236Z,1014.79
2023-01-29T10:22:13.235Z,1014.84
2023-01-29T10:23:13.226Z,1014.7
2023-01-29T10:24:13.206Z,1014.79
2023-01-29T10:25:13.235Z,1014.76
2023-01-29T10:26:13.195Z,1014.73
2023-01-29T10:27:13.178Z,1014.67
2023-01-29T10:28:13.162Z,1014.63
2023-01-29T10:29:13.179Z,1014.59
2023-01-29T10:30:13.142Z,1014.51
2023-01-29T10:31:13.131Z,1014.53
2023-01-29T10:32:13.137Z,1014.52
2023-01-29T10:33:13.118Z,1014.45
2023-01-29T10:34:13.104Z,1014.49
2023-01-29T10:35:13.087Z,1014.42
2023-01-29T10:36:13.087Z,1014.48
2023-01-29T10:37:13.085Z,1014.41
2023-01-29T10:38:13.063Z,1014.41
2023-01-29T10:39:13.054Z,1014.43
2023-01-29T10:40:13.041Z,1014.5
2023-01-29T10:41:13.113Z,1014.49
2023-01-29T10:42:13.018Z,1014.51
2023-01-29T10:43:13.011Z,1014.5
2023-01-29T10:44:12.998Z,1014.46
2023-01-29T10:45:12.983Z,1014.42
2023-01-29T10:46:12.974Z,1014.41
2023-01-29T10:47:12.981Z,1014.45
2023-01-29T10:48:12.953Z,1014.39
2023-01-29T10:49:12.938Z,1014.35
2023-01-29T10:50:12.940Z,1014.43
2023-01-29T10:51:12.920Z,1014.45
2023-01-29T10:52:13.855Z,1014.43
2023-01-29T10:53:12.903Z,1014.45
2023-01-29T10:54:12.894Z,1014.51
2023-01-29T10:55:12.878Z,1014.45
2023-01-29T10:56:12.872Z,1014.46
2023-01-29T10:57:12.857Z,1014.45
2023-01-29T10:58:12.870Z,1014.43
2023-01-29T10:59:12.846Z,1014.47
2023-01-29T11:00:12.837Z,1014.46
2023-01-29T11:01:12.826Z,1014.35
2023-01-29T11:02:12.808Z,1014.34
2023-01-29T11:03:12.819Z,1014.37
2023-01-29T11:04:12.784Z,1014.25
2023-01-29T11:05:12.777Z,1014.26
2023-01-29T11:06:12.786Z,1014.26
2023-01-29T11:07:12.758Z,1014.18
2023-01-29T11:08:12.770Z,1014.16
2023-01-29T11:09:12.731Z,1014.12
2023-01-29T11:10:12.722Z,1014.18
2023-01-29T11:11:12.729Z,1014.15
2023-01-29T11:12:12.722Z,1014.09
2023-01-29T11:13:12.688Z,1014.09
2023-01-29T11:14:12.678Z,1014.08
2023-01-29T11:15:12.688Z,1014.11
2023-01-29T11:16:12.679Z,1014.08
2023-01-29T11:17:12.651Z,1014.08
2023-01-29T11:18:12.644Z,1014.07
2023-01-29T11:19:12.630Z,1014.01
2023-01-29T11:20:12.625Z,1014.06
2023-01-29T11:21:12.615Z,1014.07
2023-01-29T11:22:12.609Z,1014.04
2023-01-29T11:23:12.606Z,1014.05
2023-01-29T11:24:12.577Z,1014.05
2023-01-29T11:25:12.568Z,1013.99
2023-01-29T11:26:12.552Z,1013.97
2023-01-29T11:27:12.558Z,1013.94
2023-01-29T11:28:12.553Z,1013.83
2023-01-29T11:29:12.523Z,1013.84
2023-01-29T11:30:12.516Z,1013.87
2023-01-29T11:31:12.496Z,1013.78
2023-01-29T11:32:12.494Z,1013.83
2023-01-29T11:33:12.479Z,1013.78
2023-01-29T11:34:12.497Z,1013.77
2023-01-29T11:35:12.458Z,1013.73
2023-01-29T11:36:12.446Z,1013.77
2023-01-29T11:37:12.442Z,1013.74
2023-01-29T11:38:12.429Z,1013.7
2023-01-29T11:39:12.420Z,1013.67
2023-01-29T11:40:12.414Z,1013.65
2023-01-29T11:41:12.399Z,1013.66
2023-01-29T11:42:12.391Z,1013.69
2023-01-29T11:43:12.376Z,1013.68
2023-01-29T11:44:12.387Z,1013.63
2023-01-29T11:45:12.358Z,1013.65
2023-01-29T11:46:12.345Z,1013.6
2023-01-29T11:47:12.343Z,1013.65
2023-01-29T11:48:12.336Z,1013.57
2023-01-29T11:49:12.312Z,1013.61
2023-01-29T11:50:12.306Z,1013.51
2023-01-29T11:51:12.301Z,1013.57
2023-01-29T11:52:12.278Z,1013.61
2023-01-29T11:53:12.271Z,1013.55
2023-01-29T11:54:12.270Z,1013.54
2023-01-29T11:55:12.252Z,1013.46
2023-01-29T11:56:12.237Z,1013.5
2023-01-29T11:57:12.223Z,1013.5
2023-01-29T11:58:12.221Z,1013.48
2023-01-29T11:59:12.208Z,1013.45
2023-01-29T12:00:12.208Z,1013.44
2023-01-29T12:01:12.182Z,1013.45
2023-01-29T12:02:12.190Z,1013.37
2023-01-29T12:03:12.158Z,1013.3
2023-01-29T12:04:12.152Z,1013.25
2023-01-29T12:05:12.151Z,1013.24
2023-01-29T12:06:12.139Z,1013.21
2023-01-29T12:07:12.125Z,1013.21
2023-01-29T12:08:12.140Z,1013.19